sensor_id;sensor_type;location;lat;lon;timestamp;P1;durP1;ratioP1;P2;durP2;ratioP2
25435;SDS011;13363;52.772;-3.890;2023-01-06T00:00:32;14.03;;;4.10;;
25435;SDS011;13363;52.772;-3.890;2023-01-06T00:02:59;19.87;;;2.67;;
25435;SDS011;13363;52.772;-3.890;2023-01-06T00:05:24;19.70;;;2.83;;
25435;SDS011;13363;52.772;-3.890;2023-01-06T00:07:52;15.87;;;3.73;;
25435;SDS011;13363;52.772;-3.890;2023-01-06T00:10:17;13.83;;;2.87;;
25435;SDS011;13363;52.772;-3.890;2023-01-06T00:12:44;11.33;;;2.97;;
25435;SDS011;13363;52.772;-3.890;2023-01-06T00:15:14;15.33;;;3.30;;
25435;SDS011;13363;52.772;-3.890;2023-01-06T00:17:40;7.73;;;2.40;;
25435;SDS011;13363;52.772;-3.890;2023-01-06T00:20:07;11.23;;;3.30;;
25435;SDS011;13363;52.772;-3.890;2023-01-06T00:22:33;3.00;;;1.60;;
25435;SDS011;13363;52.772;-3.890;2023-01-06T00:24:59;16.27;;;1.97;;
25435;SDS011;13363;52.772;-3.890;2023-01-06T00:27:26;6.27;;;1.43;;
25435;SDS011;13363;52.772;-3.890;2023-01-06T00:29:53;7.87;;;1.63;;
25435;SDS011;13363;52.772;-3.890;2023-01-06T00:32:18;8.63;;;2.50;;
25435;SDS011;13363;52.772;-3.890;2023-01-06T00:34:44;10.23;;;2.20;;
25435;SDS011;13363;52.772;-3.890;2023-01-06T00:37:10;9.03;;;2.10;;
25435;SDS011;13363;52.772;-3.890;2023-01-06T00:39:36;4.90;;;1.30;;
25435;SDS011;13363;52.772;-3.890;2023-01-06T00:42:01;5.87;;;1.93;;
25435;SDS011;13363;52.772;-3.890;2023-01-06T00:44:31;5.10;;;1.27;;
25435;SDS011;13363;52.772;-3.890;2023-01-06T00:46:58;9.93;;;1.97;;
25435;SDS011;13363;52.772;-3.890;2023-01-06T00:49:24;11.17;;;2.10;;
25435;SDS011;13363;52.772;-3.890;2023-01-06T00:51:51;9.57;;;3.47;;
25435;SDS011;13363;52.772;-3.890;2023-01-06T00:54:17;6.93;;;2.30;;
25435;SDS011;13363;52.772;-3.890;2023-01-06T00:56:44;11.03;;;3.13;;
25435;SDS011;13363;52.772;-3.890;2023-01-06T00:59:12;9.70;;;1.90;;
25435;SDS011;13363;52.772;-3.890;2023-01-06T01:01:39;21.40;;;2.97;;
25435;SDS011;13363;52.772;-3.890;2023-01-06T01:04:06;4.27;;;2.00;;
25435;SDS011;13363;52.772;-3.890;2023-01-06T01:06:33;4.43;;;1.83;;
25435;SDS011;13363;52.772;-3.890;2023-01-06T01:09:00;11.70;;;2.50;;
25435;SDS011;13363;52.772;-3.890;2023-01-06T01:11:28;12.33;;;2.30;;
25435;SDS011;13363;52.772;-3.890;2023-01-06T01:14:13;8.93;;;2.67;;
25435;SDS011;13363;52.772;-3.890;2023-01-06T01:16:41;12.40;;;2.50;;
25435;SDS011;13363;52.772;-3.890;2023-01-06T01:19:07;9.63;;;2.67;;
25435;SDS011;13363;52.772;-3.890;2023-01-06T01:21:33;9.93;;;2.57;;
25435;SDS011;13363;52.772;-3.890;2023-01-06T01:23:59;14.23;;;3.33;;
25435;SDS011;13363;52.772;-3.890;2023-01-06T01:26:25;13.20;;;2.47;;
25435;SDS011;13363;52.772;-3.890;2023-01-06T01:28:51;8.63;;;2.10;;
25435;SDS011;13363;52.772;-3.890;2023-01-06T01:31:17;15.30;;;2.27;;
25435;SDS011;13363;52.772;-3.890;2023-01-06T01:33:42;8.90;;;1.97;;
25435;SDS011;13363;52.772;-3.890;2023-01-06T01:36:09;7.50;;;2.27;;
25435;SDS011;13363;52.772;-3.890;2023-01-06T01:38:38;12.47;;;3.07;;
25435;SDS011;13363;52.772;-3.890;2023-01-06T01:41:04;8.43;;;2.57;;
25435;SDS011;13363;52.772;-3.890;2023-01-06T01:43:43;8.43;;;2.20;;
25435;SDS011;13363;52.772;-3.890;2023-01-06T01:46:09;9.73;;;3.10;;
25435;SDS011;13363;52.772;-3.890;2023-01-06T01:48:36;10.70;;;2.03;;
25435;SDS011;13363;52.772;-3.890;2023-01-06T01:51:04;9.87;;;2.60;;
25435;SDS011;13363;52.772;-3.890;2023-01-06T01:53:35;12.07;;;2.50;;
25435;SDS011;13363;52.772;-3.890;2023-01-06T01:56:07;9.60;;;2.30;;
25435;SDS011;13363;52.772;-3.890;2023-01-06T01:58:37;6.57;;;2.47;;
25435;SDS011;13363;52.772;-3.890;2023-01-06T02:01:04;10.00;;;2.60;;
25435;SDS011;13363;52.772;-3.890;2023-01-06T02:03:32;9.40;;;2.30;;
25435;SDS011;13363;52.772;-3.890;2023-01-06T02:06:00;12.63;;;2.73;;
25435;SDS011;13363;52.772;-3.890;2023-01-06T02:08:34;9.90;;;3.20;;
25435;SDS011;13363;52.772;-3.890;2023-01-06T02:11:04;7.00;;;2.53;;
25435;SDS011;13363;52.772;-3.890;2023-01-06T02:13:31;5.03;;;2.33;;
25435;SDS011;13363;52.772;-3.890;2023-01-06T02:16:03;12.97;;;3.13;;
25435;SDS011;13363;52.772;-3.890;2023-01-06T02:37:05;2.97;;;1.43;;
25435;SDS011;13363;52.772;-3.890;2023-01-06T02:40:00;14.93;;;3.00;;
25435;SDS011;13363;52.772;-3.890;2023-01-06T02:53:29;9.83;;;2.70;;
25435;SDS011;13363;52.772;-3.890;2023-01-06T02:56:02;5.87;;;1.80;;
25435;SDS011;13363;52.772;-3.890;2023-01-06T02:58:39;13.50;;;2.67;;
25435;SDS011;13363;52.772;-3.890;2023-01-06T03:01:18;19.57;;;3.13;;
25435;SDS011;13363;52.772;-3.890;2023-01-06T03:04:03;5.80;;;2.30;;
25435;SDS011;13363;52.772;-3.890;2023-01-06T03:06:35;8.60;;;2.30;;
25435;SDS011;13363;52.772;-3.890;2023-01-06T03:09:08;11.27;;;3.30;;
25435;SDS011;13363;52.772;-3.890;2023-01-06T03:11:40;13.37;;;2.20;;
25435;SDS011;13363;52.772;-3.890;2023-01-06T03:14:13;16.60;;;2.70;;
25435;SDS011;13363;52.772;-3.890;2023-01-06T03:16:44;12.77;;;2.50;;
25435;SDS011;13363;52.772;-3.890;2023-01-06T03:19:09;19.30;;;4.30;;
25435;SDS011;13363;52.772;-3.890;2023-01-06T03:21:36;17.13;;;3.60;;
25435;SDS011;13363;52.772;-3.890;2023-01-06T03:24:06;12.33;;;2.50;;
25435;SDS011;13363;52.772;-3.890;2023-01-06T03:26:34;10.63;;;1.93;;
25435;SDS011;13363;52.772;-3.890;2023-01-06T03:29:01;8.90;;;2.13;;
25435;SDS011;13363;52.772;-3.890;2023-01-06T03:31:33;19.13;;;3.70;;
25435;SDS011;13363;52.772;-3.890;2023-01-06T03:37:10;21.00;;;3.47;;
25435;SDS011;13363;52.772;-3.890;2023-01-06T03:39:49;12.10;;;3.00;;
25435;SDS011;13363;52.772;-3.890;2023-01-06T03:51:28;14.83;;;2.80;;
25435;SDS011;13363;52.772;-3.890;2023-01-06T03:58:47;27.87;;;4.87;;
25435;SDS011;13363;52.772;-3.890;2023-01-06T04:01:17;14.63;;;2.50;;
25435;SDS011;13363;52.772;-3.890;2023-01-06T04:03:45;18.07;;;3.47;;
25435;SDS011;13363;52.772;-3.890;2023-01-06T04:06:12;18.87;;;3.23;;
25435;SDS011;13363;52.772;-3.890;2023-01-06T04:08:38;13.37;;;2.30;;
25435;SDS011;13363;52.772;-3.890;2023-01-06T04:11:04;9.40;;;2.07;;
25435;SDS011;13363;52.772;-3.890;2023-01-06T04:13:30;17.40;;;3.93;;
25435;SDS011;13363;52.772;-3.890;2023-01-06T04:15:55;20.13;;;4.87;;
25435;SDS011;13363;52.772;-3.890;2023-01-06T04:18:21;21.77;;;4.13;;
25435;SDS011;13363;52.772;-3.890;2023-01-06T04:20:47;19.47;;;3.00;;
25435;SDS011;13363;52.772;-3.890;2023-01-06T04:23:13;18.00;;;2.93;;
25435;SDS011;13363;52.772;-3.890;2023-01-06T04:25:39;24.80;;;5.40;;
25435;SDS011;13363;52.772;-3.890;2023-01-06T04:28:04;17.33;;;3.43;;
25435;SDS011;13363;52.772;-3.890;2023-01-06T04:30:30;12.67;;;2.47;;
25435;SDS011;13363;52.772;-3.890;2023-01-06T04:32:56;15.60;;;4.33;;
25435;SDS011;13363;52.772;-3.890;2023-01-06T04:35:22;18.20;;;3.17;;
25435;SDS011;13363;52.772;-3.890;2023-01-06T04:37:48;23.33;;;3.50;;
25435;SDS011;13363;52.772;-3.890;2023-01-06T04:40:13;7.40;;;2.70;;
25435;SDS011;13363;52.772;-3.890;2023-01-06T04:42:39;13.20;;;3.83;;
25435;SDS011;13363;52.772;-3.890;2023-01-06T04:45:24;11.63;;;2.70;;
25435;SDS011;13363;52.772;-3.890;2023-01-06T04:47:49;16.13;;;3.50;;
25435;SDS011;13363;52.772;-3.890;2023-01-06T04:50:15;18.37;;;3.30;;
25435;SDS011;13363;52.772;-3.890;2023-01-06T04:52:41;27.37;;;4.90;;
25435;SDS011;13363;52.772;-3.890;2023-01-06T04:55:07;22.87;;;3.90;;
25435;SDS011;13363;52.772;-3.890;2023-01-06T04:57:33;24.23;;;3.83;;
25435;SDS011;13363;52.772;-3.890;2023-01-06T04:59:59;15.57;;;3.57;;
25435;SDS011;13363;52.772;-3.890;2023-01-06T05:02:25;15.60;;;3.90;;
25435;SDS011;13363;52.772;-3.890;2023-01-06T05:04:51;21.57;;;3.80;;
25435;SDS011;13363;52.772;-3.890;2023-01-06T05:07:16;18.37;;;3.87;;
25435;SDS011;13363;52.772;-3.890;2023-01-06T05:09:42;23.53;;;3.80;;
25435;SDS011;13363;52.772;-3.890;2023-01-06T05:12:08;18.07;;;3.83;;
25435;SDS011;13363;52.772;-3.890;2023-01-06T05:14:34;15.50;;;4.17;;
25435;SDS011;13363;52.772;-3.890;2023-01-06T05:17:00;19.60;;;4.00;;
25435;SDS011;13363;52.772;-3.890;2023-01-06T05:19:25;14.07;;;3.13;;
25435;SDS011;13363;52.772;-3.890;2023-01-06T05:21:51;19.20;;;4.10;;
25435;SDS011;13363;52.772;-3.890;2023-01-06T05:24:17;18.33;;;4.13;;
25435;SDS011;13363;52.772;-3.890;2023-01-06T05:26:43;17.40;;;2.97;;
25435;SDS011;13363;52.772;-3.890;2023-01-06T05:29:11;13.60;;;4.00;;
25435;SDS011;13363;52.772;-3.890;2023-01-06T05:31:41;21.27;;;3.90;;
25435;SDS011;13363;52.772;-3.890;2023-01-06T05:34:06;11.77;;;2.77;;
25435;SDS011;13363;52.772;-3.890;2023-01-06T05:36:34;21.83;;;3.23;;
25435;SDS011;13363;52.772;-3.890;2023-01-06T05:39:00;14.53;;;3.20;;
25435;SDS011;13363;52.772;-3.890;2023-01-06T05:41:25;25.97;;;4.23;;
25435;SDS011;13363;52.772;-3.890;2023-01-06T05:43:51;15.20;;;3.33;;
25435;SDS011;13363;52.772;-3.890;2023-01-06T05:46:17;23.23;;;3.77;;
25435;SDS011;13363;52.772;-3.890;2023-01-06T05:48:43;21.30;;;4.57;;
25435;SDS011;13363;52.772;-3.890;2023-01-06T05:51:10;22.50;;;3.90;;
25435;SDS011;13363;52.772;-3.890;2023-01-06T05:53:39;20.20;;;3.70;;
25435;SDS011;13363;52.772;-3.890;2023-01-06T05:56:09;13.40;;;3.27;;
25435;SDS011;13363;52.772;-3.890;2023-01-06T05:58:37;21.80;;;3.70;;
25435;SDS011;13363;52.772;-3.890;2023-01-06T06:01:13;13.23;;;2.10;;
25435;SDS011;13363;52.772;-3.890;2023-01-06T06:03:40;12.40;;;2.67;;
25435;SDS011;13363;52.772;-3.890;2023-01-06T06:06:06;12.93;;;1.67;;
25435;SDS011;13363;52.772;-3.890;2023-01-06T06:08:32;18.30;;;3.17;;
25435;SDS011;13363;52.772;-3.890;2023-01-06T06:11:05;15.63;;;2.87;;
25435;SDS011;13363;52.772;-3.890;2023-01-06T06:13:32;10.03;;;2.30;;
25435;SDS011;13363;52.772;-3.890;2023-01-06T06:16:02;11.20;;;2.80;;
25435;SDS011;13363;52.772;-3.890;2023-01-06T06:18:33;8.60;;;2.17;;
25435;SDS011;13363;52.772;-3.890;2023-01-06T06:21:03;10.27;;;2.40;;
25435;SDS011;13363;52.772;-3.890;2023-01-06T06:23:29;13.17;;;2.30;;
25435;SDS011;13363;52.772;-3.890;2023-01-06T06:25:55;7.33;;;1.73;;
25435;SDS011;13363;52.772;-3.890;2023-01-06T06:28:21;6.37;;;1.90;;
25435;SDS011;13363;52.772;-3.890;2023-01-06T06:30:47;7.40;;;2.00;;
25435;SDS011;13363;52.772;-3.890;2023-01-06T06:33:13;16.67;;;2.70;;
25435;SDS011;13363;52.772;-3.890;2023-01-06T06:35:39;13.73;;;2.60;;
25435;SDS011;13363;52.772;-3.890;2023-01-06T06:38:05;13.17;;;2.27;;
25435;SDS011;13363;52.772;-3.890;2023-01-06T06:40:31;14.60;;;3.00;;
25435;SDS011;13363;52.772;-3.890;2023-01-06T06:42:57;10.07;;;2.00;;
25435;SDS011;13363;52.772;-3.890;2023-01-06T06:45:22;15.30;;;2.63;;
25435;SDS011;13363;52.772;-3.890;2023-01-06T06:47:52;7.10;;;2.43;;
25435;SDS011;13363;52.772;-3.890;2023-01-06T06:50:19;9.73;;;2.20;;
25435;SDS011;13363;52.772;-3.890;2023-01-06T06:52:45;14.00;;;2.83;;
25435;SDS011;13363;52.772;-3.890;2023-01-06T06:55:10;12.50;;;2.77;;
25435;SDS011;13363;52.772;-3.890;2023-01-06T06:57:36;17.77;;;3.10;;
25435;SDS011;13363;52.772;-3.890;2023-01-06T07:00:03;18.13;;;2.80;;
25435;SDS011;13363;52.772;-3.890;2023-01-06T07:02:29;12.03;;;2.87;;
25435;SDS011;13363;52.772;-3.890;2023-01-06T07:04:55;24.07;;;3.67;;
25435;SDS011;13363;52.772;-3.890;2023-01-06T07:07:20;7.20;;;2.10;;
25435;SDS011;13363;52.772;-3.890;2023-01-06T07:09:46;14.57;;;3.47;;
25435;SDS011;13363;52.772;-3.890;2023-01-06T07:12:12;8.70;;;2.63;;
25435;SDS011;13363;52.772;-3.890;2023-01-06T07:14:38;2.87;;;1.73;;
25435;SDS011;13363;52.772;-3.890;2023-01-06T07:17:04;10.10;;;2.57;;
25435;SDS011;13363;52.772;-3.890;2023-01-06T07:19:30;13.87;;;3.17;;
25435;SDS011;13363;52.772;-3.890;2023-01-06T07:21:55;17.40;;;3.03;;
25435;SDS011;13363;52.772;-3.890;2023-01-06T07:24:21;8.13;;;2.33;;
25435;SDS011;13363;52.772;-3.890;2023-01-06T07:26:47;7.20;;;2.87;;
25435;SDS011;13363;52.772;-3.890;2023-01-06T07:29:13;11.17;;;2.77;;
25435;SDS011;13363;52.772;-3.890;2023-01-06T07:31:39;16.63;;;3.37;;
25435;SDS011;13363;52.772;-3.890;2023-01-06T07:34:05;17.17;;;4.67;;
25435;SDS011;13363;52.772;-3.890;2023-01-06T07:36:30;16.47;;;2.60;;
25435;SDS011;13363;52.772;-3.890;2023-01-06T07:38:56;14.40;;;3.77;;
25435;SDS011;13363;52.772;-3.890;2023-01-06T07:41:22;16.00;;;3.97;;
25435;SDS011;13363;52.772;-3.890;2023-01-06T07:43:48;22.90;;;4.07;;
25435;SDS011;13363;52.772;-3.890;2023-01-06T07:46:14;24.30;;;3.63;;
25435;SDS011;13363;52.772;-3.890;2023-01-06T07:48:39;11.70;;;3.10;;
25435;SDS011;13363;52.772;-3.890;2023-01-06T07:51:05;14.80;;;3.60;;
25435;SDS011;13363;52.772;-3.890;2023-01-06T07:53:31;26.13;;;4.00;;
25435;SDS011;13363;52.772;-3.890;2023-01-06T07:55:57;22.70;;;3.27;;
25435;SDS011;13363;52.772;-3.890;2023-01-06T07:58:23;11.17;;;2.37;;
25435;SDS011;13363;52.772;-3.890;2023-01-06T08:00:49;15.73;;;3.33;;
25435;SDS011;13363;52.772;-3.890;2023-01-06T08:03:15;10.23;;;1.70;;
25435;SDS011;13363;52.772;-3.890;2023-01-06T08:05:41;6.07;;;1.90;;
25435;SDS011;13363;52.772;-3.890;2023-01-06T08:08:07;10.80;;;2.10;;
25435;SDS011;13363;52.772;-3.890;2023-01-06T08:10:36;12.47;;;2.60;;
25435;SDS011;13363;52.772;-3.890;2023-01-06T08:13:03;12.00;;;2.80;;
25435;SDS011;13363;52.772;-3.890;2023-01-06T08:15:29;8.93;;;1.70;;
25435;SDS011;13363;52.772;-3.890;2023-01-06T08:17:55;3.13;;;1.10;;
25435;SDS011;13363;52.772;-3.890;2023-01-06T08:20:21;3.70;;;0.93;;
25435;SDS011;13363;52.772;-3.890;2023-01-06T08:22:48;1.33;;;0.50;;
25435;SDS011;13363;52.772;-3.890;2023-01-06T08:25:13;3.40;;;1.03;;
25435;SDS011;13363;52.772;-3.890;2023-01-06T08:27:39;3.97;;;0.90;;
25435;SDS011;13363;52.772;-3.890;2023-01-06T08:30:05;4.30;;;1.10;;
25435;SDS011;13363;52.772;-3.890;2023-01-06T08:32:32;6.10;;;1.27;;
25435;SDS011;13363;52.772;-3.890;2023-01-06T08:34:57;3.03;;;0.83;;
25435;SDS011;13363;52.772;-3.890;2023-01-06T08:37:23;3.57;;;1.47;;
25435;SDS011;13363;52.772;-3.890;2023-01-06T08:39:49;4.40;;;1.07;;
25435;SDS011;13363;52.772;-3.890;2023-01-06T08:42:15;9.10;;;1.70;;
25435;SDS011;13363;52.772;-3.890;2023-01-06T08:44:42;4.17;;;1.97;;
25435;SDS011;13363;52.772;-3.890;2023-01-06T08:47:08;6.20;;;1.53;;
25435;SDS011;13363;52.772;-3.890;2023-01-06T08:49:34;5.77;;;1.80;;
25435;SDS011;13363;52.772;-3.890;2023-01-06T08:52:00;10.53;;;1.93;;
25435;SDS011;13363;52.772;-3.890;2023-01-06T08:54:26;6.23;;;1.97;;
25435;SDS011;13363;52.772;-3.890;2023-01-06T08:56:53;11.03;;;2.30;;
25435;SDS011;13363;52.772;-3.890;2023-01-06T08:59:19;8.70;;;1.80;;
25435;SDS011;13363;52.772;-3.890;2023-01-06T09:01:45;8.93;;;1.97;;
25435;SDS011;13363;52.772;-3.890;2023-01-06T09:04:11;12.37;;;3.10;;
25435;SDS011;13363;52.772;-3.890;2023-01-06T09:06:37;8.43;;;2.17;;
25435;SDS011;13363;52.772;-3.890;2023-01-06T09:09:05;9.03;;;2.30;;
25435;SDS011;13363;52.772;-3.890;2023-01-06T09:11:31;9.93;;;3.23;;
25435;SDS011;13363;52.772;-3.890;2023-01-06T09:13:57;6.43;;;2.50;;
25435;SDS011;13363;52.772;-3.890;2023-01-06T09:16:23;10.80;;;2.70;;
25435;SDS011;13363;52.772;-3.890;2023-01-06T09:18:49;10.30;;;2.10;;
25435;SDS011;13363;52.772;-3.890;2023-01-06T09:21:16;6.47;;;2.50;;
25435;SDS011;13363;52.772;-3.890;2023-01-06T09:23:45;8.90;;;2.30;;
25435;SDS011;13363;52.772;-3.890;2023-01-06T09:26:12;7.97;;;2.53;;
25435;SDS011;13363;52.772;-3.890;2023-01-06T09:28:39;7.43;;;1.67;;
25435;SDS011;13363;52.772;-3.890;2023-01-06T09:31:05;6.27;;;1.77;;
25435;SDS011;13363;52.772;-3.890;2023-01-06T09:33:31;6.57;;;2.00;;
25435;SDS011;13363;52.772;-3.890;2023-01-06T09:35:57;5.87;;;2.27;;
25435;SDS011;13363;52.772;-3.890;2023-01-06T09:38:23;9.70;;;1.90;;
25435;SDS011;13363;52.772;-3.890;2023-01-06T09:43:35;9.37;;;2.17;;
25435;SDS011;13363;52.772;-3.890;2023-01-06T09:46:25;4.87;;;1.27;;
25435;SDS011;13363;52.772;-3.890;2023-01-06T09:49:19;7.17;;;1.63;;
25435;SDS011;13363;52.772;-3.890;2023-01-06T09:52:30;4.30;;;1.77;;
25435;SDS011;13363;52.772;-3.890;2023-01-06T09:55:05;7.27;;;1.70;;
25435;SDS011;13363;52.772;-3.890;2023-01-06T09:57:39;5.47;;;1.77;;
25435;SDS011;13363;52.772;-3.890;2023-01-06T10:02:57;6.57;;;1.90;;
25435;SDS011;13363;52.772;-3.890;2023-01-06T10:05:33;4.90;;;1.73;;
25435;SDS011;13363;52.772;-3.890;2023-01-06T10:08:21;7.67;;;1.77;;
25435;SDS011;13363;52.772;-3.890;2023-01-06T10:29:48;4.30;;;1.33;;
25435;SDS011;13363;52.772;-3.890;2023-01-06T10:32:16;2.80;;;1.23;;
25435;SDS011;13363;52.772;-3.890;2023-01-06T10:34:43;1.17;;;0.80;;
25435;SDS011;13363;52.772;-3.890;2023-01-06T10:39:41;1.13;;;0.83;;
25435;SDS011;13363;52.772;-3.890;2023-01-06T10:42:22;9.70;;;1.63;;
25435;SDS011;13363;52.772;-3.890;2023-01-06T10:45:20;5.40;;;1.30;;
25435;SDS011;13363;52.772;-3.890;2023-01-06T10:47:53;3.43;;;1.63;;
25435;SDS011;13363;52.772;-3.890;2023-01-06T10:50:20;5.27;;;1.50;;
25435;SDS011;13363;52.772;-3.890;2023-01-06T10:52:47;6.30;;;1.67;;
25435;SDS011;13363;52.772;-3.890;2023-01-06T10:55:21;9.50;;;1.53;;
25435;SDS011;13363;52.772;-3.890;2023-01-06T10:57:49;6.07;;;1.57;;
25435;SDS011;13363;52.772;-3.890;2023-01-06T11:00:18;1.60;;;0.83;;
25435;SDS011;13363;52.772;-3.890;2023-01-06T11:02:52;1.60;;;0.83;;
25435;SDS011;13363;52.772;-3.890;2023-01-06T11:05:21;5.50;;;1.57;;
25435;SDS011;13363;52.772;-3.890;2023-01-06T11:07:55;7.00;;;1.63;;
25435;SDS011;13363;52.772;-3.890;2023-01-06T11:10:33;6.10;;;1.40;;
25435;SDS011;13363;52.772;-3.890;2023-01-06T11:13:03;2.23;;;1.43;;
25435;SDS011;13363;52.772;-3.890;2023-01-06T11:15:38;10.10;;;1.60;;
25435;SDS011;13363;52.772;-3.890;2023-01-06T11:18:15;7.63;;;2.07;;
25435;SDS011;13363;52.772;-3.890;2023-01-06T11:23:35;8.07;;;1.77;;
25435;SDS011;13363;52.772;-3.890;2023-01-06T11:26:05;4.53;;;1.63;;
25435;SDS011;13363;52.772;-3.890;2023-01-06T11:28:43;6.13;;;1.90;;
25435;SDS011;13363;52.772;-3.890;2023-01-06T11:33:48;8.67;;;2.17;;
25435;SDS011;13363;52.772;-3.890;2023-01-06T11:36:30;4.23;;;1.57;;
25435;SDS011;13363;52.772;-3.890;2023-01-06T11:38:59;6.70;;;1.47;;
25435;SDS011;13363;52.772;-3.890;2023-01-06T11:41:37;5.47;;;1.57;;
25435;SDS011;13363;52.772;-3.890;2023-01-06T11:44:09;8.20;;;1.90;;
25435;SDS011;13363;52.772;-3.890;2023-01-06T11:46:49;7.10;;;1.33;;
25435;SDS011;13363;52.772;-3.890;2023-01-06T11:52:01;10.03;;;1.93;;
25435;SDS011;13363;52.772;-3.890;2023-01-06T11:54:42;8.43;;;1.60;;
25435;SDS011;13363;52.772;-3.890;2023-01-06T12:08:32;6.13;;;1.70;;
25435;SDS011;13363;52.772;-3.890;2023-01-06T12:13:52;7.20;;;1.67;;
25435;SDS011;13363;52.772;-3.890;2023-01-06T12:16:20;8.20;;;1.37;;
25435;SDS011;13363;52.772;-3.890;2023-01-06T12:18:59;4.20;;;0.80;;
25435;SDS011;13363;52.772;-3.890;2023-01-06T12:21:29;5.60;;;1.60;;
25435;SDS011;13363;52.772;-3.890;2023-01-06T12:23:59;4.77;;;1.23;;
25435;SDS011;13363;52.772;-3.890;2023-01-06T12:26:29;4.50;;;1.80;;
25435;SDS011;13363;52.772;-3.890;2023-01-06T12:28:56;3.63;;;1.13;;
25435;SDS011;13363;52.772;-3.890;2023-01-06T12:31:46;3.63;;;1.10;;
25435;SDS011;13363;52.772;-3.890;2023-01-06T12:37:01;1.97;;;1.13;;
25435;SDS011;13363;52.772;-3.890;2023-01-06T12:39:55;1.93;;;0.90;;
25435;SDS011;13363;52.772;-3.890;2023-01-06T12:45:00;5.33;;;1.40;;
25435;SDS011;13363;52.772;-3.890;2023-01-06T12:50:16;2.93;;;1.13;;
25435;SDS011;13363;52.772;-3.890;2023-01-06T12:55:26;3.33;;;0.60;;
25435;SDS011;13363;52.772;-3.890;2023-01-06T13:01:09;3.47;;;1.20;;
25435;SDS011;13363;52.772;-3.890;2023-01-06T13:04:05;4.77;;;1.03;;
25435;SDS011;13363;52.772;-3.890;2023-01-06T13:07:41;8.13;;;1.47;;
25435;SDS011;13363;52.772;-3.890;2023-01-06T13:17:53;6.83;;;1.20;;
25435;SDS011;13363;52.772;-3.890;2023-01-06T13:20:28;2.00;;;1.20;;
25435;SDS011;13363;52.772;-3.890;2023-01-06T13:28:32;5.80;;;1.40;;
25435;SDS011;13363;52.772;-3.890;2023-01-06T13:34:19;2.23;;;1.30;;
25435;SDS011;13363;52.772;-3.890;2023-01-06T13:39:46;2.77;;;2.17;;
25435;SDS011;13363;52.772;-3.890;2023-01-06T13:42:18;2.20;;;1.70;;
25435;SDS011;13363;52.772;-3.890;2023-01-06T13:44:56;4.00;;;1.60;;
25435;SDS011;13363;52.772;-3.890;2023-01-06T13:47:22;3.17;;;1.30;;
25435;SDS011;13363;52.772;-3.890;2023-01-06T13:49:49;3.03;;;1.13;;
25435;SDS011;13363;52.772;-3.890;2023-01-06T13:52:21;3.80;;;1.53;;
25435;SDS011;13363;52.772;-3.890;2023-01-06T13:59:48;4.20;;;1.07;;
25435;SDS011;13363;52.772;-3.890;2023-01-06T14:02:56;2.53;;;1.07;;
25435;SDS011;13363;52.772;-3.890;2023-01-06T14:07:58;2.40;;;1.33;;
25435;SDS011;13363;52.772;-3.890;2023-01-06T14:10:29;3.87;;;1.30;;
25435;SDS011;13363;52.772;-3.890;2023-01-06T14:12:56;2.70;;;1.40;;
25435;SDS011;13363;52.772;-3.890;2023-01-06T14:15:30;2.43;;;1.03;;
25435;SDS011;13363;52.772;-3.890;2023-01-06T14:17:59;3.67;;;0.80;;
25435;SDS011;13363;52.772;-3.890;2023-01-06T14:20:33;4.23;;;1.03;;
25435;SDS011;13363;52.772;-3.890;2023-01-06T14:23:03;1.47;;;0.90;;
25435;SDS011;13363;52.772;-3.890;2023-01-06T14:25:39;1.83;;;1.13;;
25435;SDS011;13363;52.772;-3.890;2023-01-06T14:30:45;1.23;;;0.67;;
25435;SDS011;13363;52.772;-3.890;2023-01-06T14:33:22;2.43;;;1.10;;
25435;SDS011;13363;52.772;-3.890;2023-01-06T14:36:14;5.27;;;1.03;;
25435;SDS011;13363;52.772;-3.890;2023-01-06T14:38:49;6.17;;;1.47;;
25435;SDS011;13363;52.772;-3.890;2023-01-06T14:41:31;5.17;;;1.17;;
25435;SDS011;13363;52.772;-3.890;2023-01-06T14:44:12;2.00;;;1.00;;
25435;SDS011;13363;52.772;-3.890;2023-01-06T14:46:49;2.83;;;0.87;;
25435;SDS011;13363;52.772;-3.890;2023-01-06T14:49:19;3.90;;;1.33;;
25435;SDS011;13363;52.772;-3.890;2023-01-06T14:52:11;3.90;;;1.60;;
25435;SDS011;13363;52.772;-3.890;2023-01-06T14:54:51;4.47;;;1.20;;
25435;SDS011;13363;52.772;-3.890;2023-01-06T14:57:34;5.17;;;2.10;;
25435;SDS011;13363;52.772;-3.890;2023-01-06T15:00:06;7.03;;;1.17;;
25435;SDS011;13363;52.772;-3.890;2023-01-06T15:03:33;5.00;;;1.40;;
25435;SDS011;13363;52.772;-3.890;2023-01-06T15:05:47;6.77;;;1.70;;
25435;SDS011;13363;52.772;-3.890;2023-01-06T15:08:17;3.33;;;1.13;;
25435;SDS011;13363;52.772;-3.890;2023-01-06T15:10:44;3.57;;;1.33;;
25435;SDS011;13363;52.772;-3.890;2023-01-06T15:18:46;8.43;;;2.07;;
25435;SDS011;13363;52.772;-3.890;2023-01-06T15:21:13;6.13;;;1.67;;
25435;SDS011;13363;52.772;-3.890;2023-01-06T15:23:42;2.07;;;1.23;;
25435;SDS011;13363;52.772;-3.890;2023-01-06T15:26:15;7.03;;;1.93;;
25435;SDS011;13363;52.772;-3.890;2023-01-06T15:31:25;5.67;;;0.93;;
25435;SDS011;13363;52.772;-3.890;2023-01-06T15:33:53;5.83;;;1.27;;
25435;SDS011;13363;52.772;-3.890;2023-01-06T15:36:20;4.87;;;1.40;;
25435;SDS011;13363;52.772;-3.890;2023-01-06T15:38:48;4.20;;;1.30;;
25435;SDS011;13363;52.772;-3.890;2023-01-06T15:41:15;3.70;;;1.13;;
25435;SDS011;13363;52.772;-3.890;2023-01-06T15:43:57;4.63;;;1.40;;
25435;SDS011;13363;52.772;-3.890;2023-01-06T15:46:40;0.90;;;0.77;;
25435;SDS011;13363;52.772;-3.890;2023-01-06T15:49:12;2.70;;;1.60;;
25435;SDS011;13363;52.772;-3.890;2023-01-06T15:51:55;3.00;;;0.67;;
25435;SDS011;13363;52.772;-3.890;2023-01-06T15:54:27;4.73;;;1.50;;
25435;SDS011;13363;52.772;-3.890;2023-01-06T15:56:55;5.00;;;1.10;;
25435;SDS011;13363;52.772;-3.890;2023-01-06T15:59:22;3.90;;;0.97;;
25435;SDS011;13363;52.772;-3.890;2023-01-06T16:01:52;3.90;;;2.20;;
25435;SDS011;13363;52.772;-3.890;2023-01-06T16:04:19;2.73;;;1.13;;
25435;SDS011;13363;52.772;-3.890;2023-01-06T16:06:46;3.60;;;0.97;;
25435;SDS011;13363;52.772;-3.890;2023-01-06T16:09:20;4.43;;;0.67;;
25435;SDS011;13363;52.772;-3.890;2023-01-06T16:12:23;3.83;;;1.00;;
25435;SDS011;13363;52.772;-3.890;2023-01-06T16:14:46;5.67;;;1.23;;
25435;SDS011;13363;52.772;-3.890;2023-01-06T16:20:19;5.17;;;0.93;;
25435;SDS011;13363;52.772;-3.890;2023-01-06T16:22:48;3.77;;;0.70;;
25435;SDS011;13363;52.772;-3.890;2023-01-06T16:25:29;0.73;;;0.67;;
25435;SDS011;13363;52.772;-3.890;2023-01-06T16:27:58;2.63;;;0.80;;
25435;SDS011;13363;52.772;-3.890;2023-01-06T16:30:27;4.60;;;0.97;;
25435;SDS011;13363;52.772;-3.890;2023-01-06T16:32:54;0.90;;;0.60;;
25435;SDS011;13363;52.772;-3.890;2023-01-06T16:35:22;1.83;;;0.67;;
25435;SDS011;13363;52.772;-3.890;2023-01-06T16:37:50;1.87;;;1.10;;
25435;SDS011;13363;52.772;-3.890;2023-01-06T16:40:17;1.33;;;0.40;;
25435;SDS011;13363;52.772;-3.890;2023-01-06T16:42:45;0.70;;;0.70;;
25435;SDS011;13363;52.772;-3.890;2023-01-06T16:47:38;2.97;;;0.70;;
25435;SDS011;13363;52.772;-3.890;2023-01-06T16:50:19;0.77;;;0.70;;
25435;SDS011;13363;52.772;-3.890;2023-01-06T16:52:50;1.53;;;0.67;;
25435;SDS011;13363;52.772;-3.890;2023-01-06T16:55:25;1.30;;;0.67;;
25435;SDS011;13363;52.772;-3.890;2023-01-06T16:57:51;4.83;;;0.80;;
25435;SDS011;13363;52.772;-3.890;2023-01-06T17:00:18;3.00;;;0.80;;
25435;SDS011;13363;52.772;-3.890;2023-01-06T17:02:46;1.00;;;0.73;;
25435;SDS011;13363;52.772;-3.890;2023-01-06T17:05:32;0.70;;;0.67;;
25435;SDS011;13363;52.772;-3.890;2023-01-06T17:08:00;0.83;;;0.63;;
25435;SDS011;13363;52.772;-3.890;2023-01-06T17:10:29;3.20;;;1.00;;
25435;SDS011;13363;52.772;-3.890;2023-01-06T17:13:00;0.70;;;0.70;;
25435;SDS011;13363;52.772;-3.890;2023-01-06T17:15:48;1.67;;;0.70;;
25435;SDS011;13363;52.772;-3.890;2023-01-06T17:18:20;0.50;;;0.50;;